Catalina S — OEX9256 — position and weather

sailwx.info

Track history (hours):
 
Tides and Currents Weather Stations Pressure Air Temp Water Temp Dewpoint Dewpoint Depression Visibility Wind Speed Wind Dir Waves Ship Positions

Catalina S

Last reported at 2017-Sep-28 17:56 UTC. Time now 2017-Nov-19 19:41 UTC.
Position N 38°42' W 009°08'.
Warning: this ship's position is 52 days out of date.

Length 14 m.

Type: Sailing vessel. MMSI: 203274400.

Date/timePositionNaut miles runAvg speedWind from/ knotsBaromVisibWave heightAir tempDewpointWater temp
2017-Sep-28 17:56N 38°42' W 009°08'3 7.6
2017-Sep-28 17:29N 38°41' W 009°13'4 7.7
2017-Sep-28 17:00N 38°41' W 009°17'4 6.8
2017-Sep-28 16:29N 38°40' W 009°22'3 6.5
2017-Sep-28 16:00N 38°41' W 009°26'6 5.9
2017-Sep-28 14:56N 38°46' W 009°31'3 6.3
2017-Sep-28 14:29N 38°49' W 009°31'3 6.3
2017-Sep-28 13:59N 38°52' W 009°31'3 6.1
2017-Sep-28 13:29N 38°55' W 009°30'3 6.1
2017-Sep-28 13:00N 38°58' W 009°30'4 6.5
2017-Sep-28 12:23N 39°02' W 009°29'3 6.6
2017-Sep-28 12:00N 39°04' W 009°29'4 6.4
2017-Sep-28 11:20N 39°09' W 009°28'  
Track history (hours):
 
Tides and Currents Weather Stations Pressure Air Temp Water Temp Dewpoint Dewpoint Depression Visibility Wind Speed Wind Dir Waves Ship Positions

Catalina S

Last reported at 2017-Sep-28 17:56 UTC. Time now 2017-Nov-19 19:41 UTC.
Position N 38°42' W 009°08'.
Warning: this ship's position is 52 days out of date.

Length 14 m.

Type: Sailing vessel. MMSI: 203274400.

Date/timePositionNaut miles runAvg speedWind from/ knotsBaromVisibWave heightAir tempDewpointWater temp
2017-Sep-28 17:56N 38°42' W 009°08'3 7.6
2017-Sep-28 17:29N 38°41' W 009°13'4 7.7
2017-Sep-28 17:00N 38°41' W 009°17'4 6.8
2017-Sep-28 16:29N 38°40' W 009°22'3 6.5
2017-Sep-28 16:00N 38°41' W 009°26'6 5.9
2017-Sep-28 14:56N 38°46' W 009°31'3 6.3
2017-Sep-28 14:29N 38°49' W 009°31'3 6.3
2017-Sep-28 13:59N 38°52' W 009°31'3 6.1
2017-Sep-28 13:29N 38°55' W 009°30'3 6.1
2017-Sep-28 13:00N 38°58' W 009°30'4 6.5
2017-Sep-28 12:23N 39°02' W 009°29'3 6.6
2017-Sep-28 12:00N 39°04' W 009°29'4 6.4
2017-Sep-28 11:20N 39°09' W 009°28'  

Dump ship's entire track history